sensor_id;sensor_type;location;lat;lon;timestamp;P1;durP1;ratioP1;P2;durP2;ratioP2
72427;SDS011;60419;48.880;18.036;2022-11-24T00:00:37;53.95;;;25.50;;
72427;SDS011;60419;48.880;18.036;2022-11-24T00:03:22;54.08;;;25.60;;
72427;SDS011;60419;48.880;18.036;2022-11-24T00:06:08;50.70;;;25.45;;
72427;SDS011;60419;48.880;18.036;2022-11-24T00:08:56;52.03;;;25.48;;
72427;SDS011;60419;48.880;18.036;2022-11-24T00:11:42;53.25;;;25.92;;
72427;SDS011;60419;48.880;18.036;2022-11-24T00:14:27;57.30;;;26.90;;
72427;SDS011;60419;48.880;18.036;2022-11-24T00:17:13;58.30;;;27.35;;
72427;SDS011;60419;48.880;18.036;2022-11-24T00:19:58;55.15;;;25.83;;
72427;SDS011;60419;48.880;18.036;2022-11-24T00:22:43;56.97;;;26.60;;
72427;SDS011;60419;48.880;18.036;2022-11-24T00:25:29;59.90;;;28.40;;
72427;SDS011;60419;48.880;18.036;2022-11-24T00:28:14;61.70;;;29.48;;
72427;SDS011;60419;48.880;18.036;2022-11-24T00:31:00;68.45;;;28.40;;
72427;SDS011;60419;48.880;18.036;2022-11-24T00:33:46;66.03;;;28.67;;
72427;SDS011;60419;48.880;18.036;2022-11-24T00:36:33;66.95;;;28.08;;
72427;SDS011;60419;48.880;18.036;2022-11-24T00:39:19;63.45;;;27.65;;
72427;SDS011;60419;48.880;18.036;2022-11-24T00:42:05;69.50;;;29.83;;
72427;SDS011;60419;48.880;18.036;2022-11-24T00:44:50;64.20;;;28.45;;
72427;SDS011;60419;48.880;18.036;2022-11-24T00:47:35;60.22;;;27.40;;
72427;SDS011;60419;48.880;18.036;2022-11-24T00:50:21;63.97;;;27.88;;
72427;SDS011;60419;48.880;18.036;2022-11-24T00:53:06;65.07;;;28.88;;
72427;SDS011;60419;48.880;18.036;2022-11-24T00:55:52;60.55;;;27.20;;
72427;SDS011;60419;48.880;18.036;2022-11-24T00:58:38;61.35;;;28.23;;
72427;SDS011;60419;48.880;18.036;2022-11-24T01:01:25;64.43;;;28.67;;
72427;SDS011;60419;48.880;18.036;2022-11-24T01:04:12;56.60;;;27.27;;
72427;SDS011;60419;48.880;18.036;2022-11-24T01:06:57;61.50;;;28.67;;
72427;SDS011;60419;48.880;18.036;2022-11-24T01:09:43;65.25;;;28.63;;
72427;SDS011;60419;48.880;18.036;2022-11-24T01:12:29;58.38;;;26.88;;
72427;SDS011;60419;48.880;18.036;2022-11-24T01:15:15;63.08;;;29.15;;
72427;SDS011;60419;48.880;18.036;2022-11-24T01:18:01;67.55;;;29.40;;
72427;SDS011;60419;48.880;18.036;2022-11-24T01:20:46;62.17;;;29.33;;
72427;SDS011;60419;48.880;18.036;2022-11-24T01:23:32;62.55;;;27.83;;
72427;SDS011;60419;48.880;18.036;2022-11-24T01:26:18;63.35;;;28.48;;
72427;SDS011;60419;48.880;18.036;2022-11-24T01:29:05;64.43;;;28.48;;
72427;SDS011;60419;48.880;18.036;2022-11-24T01:31:50;60.97;;;27.40;;
72427;SDS011;60419;48.880;18.036;2022-11-24T01:34:36;58.85;;;27.75;;
72427;SDS011;60419;48.880;18.036;2022-11-24T01:37:21;60.42;;;27.70;;
72427;SDS011;60419;48.880;18.036;2022-11-24T01:40:07;61.10;;;28.90;;
72427;SDS011;60419;48.880;18.036;2022-11-24T01:42:52;63.17;;;28.55;;
72427;SDS011;60419;48.880;18.036;2022-11-24T01:45:38;59.88;;;26.10;;
72427;SDS011;60419;48.880;18.036;2022-11-24T01:48:26;56.13;;;25.30;;
72427;SDS011;60419;48.880;18.036;2022-11-24T01:51:17;60.60;;;26.98;;
72427;SDS011;60419;48.880;18.036;2022-11-24T01:54:10;60.33;;;27.75;;
72427;SDS011;60419;48.880;18.036;2022-11-24T01:57:01;54.88;;;26.85;;
72427;SDS011;60419;48.880;18.036;2022-11-24T01:59:54;55.22;;;25.80;;
72427;SDS011;60419;48.880;18.036;2022-11-24T02:02:43;54.30;;;26.02;;
72427;SDS011;60419;48.880;18.036;2022-11-24T02:05:40;56.15;;;26.88;;
72427;SDS011;60419;48.880;18.036;2022-11-24T02:08:34;59.13;;;26.77;;
72427;SDS011;60419;48.880;18.036;2022-11-24T02:11:28;59.00;;;27.98;;
72427;SDS011;60419;48.880;18.036;2022-11-24T02:17:06;56.83;;;25.80;;
72427;SDS011;60419;48.880;18.036;2022-11-24T02:19:56;54.33;;;26.17;;
72427;SDS011;60419;48.880;18.036;2022-11-24T02:28:43;56.20;;;26.17;;
72427;SDS011;60419;48.880;18.036;2022-11-24T02:31:29;55.47;;;26.52;;
72427;SDS011;60419;48.880;18.036;2022-11-24T02:34:15;56.03;;;24.45;;
72427;SDS011;60419;48.880;18.036;2022-11-24T02:37:00;52.72;;;25.38;;
72427;SDS011;60419;48.880;18.036;2022-11-24T02:39:45;58.97;;;25.63;;
72427;SDS011;60419;48.880;18.036;2022-11-24T02:42:32;49.72;;;24.02;;
72427;SDS011;60419;48.880;18.036;2022-11-24T02:45:21;51.55;;;24.85;;
72427;SDS011;60419;48.880;18.036;2022-11-24T02:48:08;40.63;;;20.10;;
72427;SDS011;60419;48.880;18.036;2022-11-24T02:50:53;47.42;;;22.95;;
72427;SDS011;60419;48.880;18.036;2022-11-24T02:53:38;48.95;;;23.05;;
72427;SDS011;60419;48.880;18.036;2022-11-24T02:56:24;43.80;;;22.90;;
72427;SDS011;60419;48.880;18.036;2022-11-24T02:59:10;41.22;;;20.63;;
72427;SDS011;60419;48.880;18.036;2022-11-24T03:01:56;39.88;;;19.50;;
72427;SDS011;60419;48.880;18.036;2022-11-24T03:04:41;35.90;;;19.67;;
72427;SDS011;60419;48.880;18.036;2022-11-24T03:07:28;36.33;;;18.65;;
72427;SDS011;60419;48.880;18.036;2022-11-24T03:10:14;36.17;;;17.05;;
72427;SDS011;60419;48.880;18.036;2022-11-24T03:13:00;38.22;;;18.58;;
72427;SDS011;60419;48.880;18.036;2022-11-24T03:15:45;37.55;;;18.55;;
72427;SDS011;60419;48.880;18.036;2022-11-24T03:18:30;38.20;;;18.55;;
72427;SDS011;60419;48.880;18.036;2022-11-24T03:21:16;39.55;;;18.92;;
72427;SDS011;60419;48.880;18.036;2022-11-24T03:24:01;34.08;;;17.15;;
72427;SDS011;60419;48.880;18.036;2022-11-24T03:26:46;38.65;;;19.17;;
72427;SDS011;60419;48.880;18.036;2022-11-24T03:29:32;37.33;;;18.83;;
72427;SDS011;60419;48.880;18.036;2022-11-24T03:32:17;36.88;;;18.63;;
72427;SDS011;60419;48.880;18.036;2022-11-24T03:35:03;41.45;;;19.35;;
72427;SDS011;60419;48.880;18.036;2022-11-24T03:37:49;36.80;;;18.20;;
72427;SDS011;60419;48.880;18.036;2022-11-24T03:40:34;39.40;;;19.55;;
72427;SDS011;60419;48.880;18.036;2022-11-24T03:43:19;37.53;;;18.75;;
72427;SDS011;60419;48.880;18.036;2022-11-24T03:46:05;39.60;;;18.77;;
72427;SDS011;60419;48.880;18.036;2022-11-24T03:48:50;40.65;;;19.90;;
72427;SDS011;60419;48.880;18.036;2022-11-24T03:51:36;39.03;;;19.25;;
72427;SDS011;60419;48.880;18.036;2022-11-24T03:54:21;37.00;;;18.38;;
72427;SDS011;60419;48.880;18.036;2022-11-24T03:57:07;38.60;;;19.55;;
72427;SDS011;60419;48.880;18.036;2022-11-24T03:59:52;36.45;;;17.70;;
72427;SDS011;60419;48.880;18.036;2022-11-24T04:02:38;40.50;;;19.02;;
72427;SDS011;60419;48.880;18.036;2022-11-24T04:05:23;41.28;;;18.35;;
72427;SDS011;60419;48.880;18.036;2022-11-24T04:08:09;38.60;;;19.23;;
72427;SDS011;60419;48.880;18.036;2022-11-24T04:10:54;38.30;;;17.85;;
72427;SDS011;60419;48.880;18.036;2022-11-24T04:13:40;39.67;;;19.10;;
72427;SDS011;60419;48.880;18.036;2022-11-24T04:16:25;40.53;;;18.67;;
72427;SDS011;60419;48.880;18.036;2022-11-24T04:19:11;38.72;;;19.10;;
72427;SDS011;60419;48.880;18.036;2022-11-24T04:21:56;40.60;;;19.55;;
72427;SDS011;60419;48.880;18.036;2022-11-24T04:24:41;42.47;;;19.73;;
72427;SDS011;60419;48.880;18.036;2022-11-24T04:27:27;42.85;;;19.95;;
72427;SDS011;60419;48.880;18.036;2022-11-24T04:30:14;43.03;;;19.98;;
72427;SDS011;60419;48.880;18.036;2022-11-24T04:32:59;47.53;;;21.30;;
72427;SDS011;60419;48.880;18.036;2022-11-24T04:35:44;42.72;;;19.67;;
72427;SDS011;60419;48.880;18.036;2022-11-24T04:38:30;47.17;;;22.52;;
72427;SDS011;60419;48.880;18.036;2022-11-24T04:41:15;47.80;;;21.67;;
72427;SDS011;60419;48.880;18.036;2022-11-24T04:44:00;52.03;;;22.50;;
72427;SDS011;60419;48.880;18.036;2022-11-24T04:46:46;50.05;;;22.05;;
72427;SDS011;60419;48.880;18.036;2022-11-24T04:49:31;53.53;;;23.25;;
72427;SDS011;60419;48.880;18.036;2022-11-24T04:52:17;50.63;;;20.90;;
72427;SDS011;60419;48.880;18.036;2022-11-24T04:55:03;49.55;;;21.98;;
72427;SDS011;60419;48.880;18.036;2022-11-24T04:57:49;51.97;;;22.17;;
72427;SDS011;60419;48.880;18.036;2022-11-24T05:00:34;49.83;;;21.60;;
72427;SDS011;60419;48.880;18.036;2022-11-24T05:03:20;48.97;;;21.20;;
72427;SDS011;60419;48.880;18.036;2022-11-24T05:06:06;50.63;;;21.88;;
72427;SDS011;60419;48.880;18.036;2022-11-24T05:08:52;47.33;;;21.75;;
72427;SDS011;60419;48.880;18.036;2022-11-24T05:11:38;48.33;;;21.00;;
72427;SDS011;60419;48.880;18.036;2022-11-24T05:14:23;51.63;;;21.80;;
72427;SDS011;60419;48.880;18.036;2022-11-24T05:17:09;53.03;;;22.20;;
72427;SDS011;60419;48.880;18.036;2022-11-24T05:19:54;51.10;;;22.10;;
72427;SDS011;60419;48.880;18.036;2022-11-24T05:22:39;50.05;;;22.52;;
72427;SDS011;60419;48.880;18.036;2022-11-24T05:25:25;47.00;;;21.73;;
72427;SDS011;60419;48.880;18.036;2022-11-24T05:28:10;47.55;;;21.95;;
72427;SDS011;60419;48.880;18.036;2022-11-24T05:31:02;52.65;;;23.70;;
72427;SDS011;60419;48.880;18.036;2022-11-24T05:33:48;50.33;;;21.88;;
72427;SDS011;60419;48.880;18.036;2022-11-24T05:36:33;51.92;;;21.75;;
72427;SDS011;60419;48.880;18.036;2022-11-24T05:39:36;52.80;;;23.73;;
72427;SDS011;60419;48.880;18.036;2022-11-24T05:42:22;52.45;;;22.42;;
72427;SDS011;60419;48.880;18.036;2022-11-24T05:45:26;47.10;;;21.60;;
72427;SDS011;60419;48.880;18.036;2022-11-24T05:48:12;51.22;;;21.77;;
72427;SDS011;60419;48.880;18.036;2022-11-24T05:50:59;46.70;;;22.27;;
72427;SDS011;60419;48.880;18.036;2022-11-24T05:53:45;54.85;;;23.75;;
72427;SDS011;60419;48.880;18.036;2022-11-24T05:56:31;52.97;;;21.23;;
72427;SDS011;60419;48.880;18.036;2022-11-24T05:59:16;55.33;;;24.30;;
72427;SDS011;60419;48.880;18.036;2022-11-24T06:02:02;49.67;;;23.00;;
72427;SDS011;60419;48.880;18.036;2022-11-24T06:04:47;51.40;;;22.70;;
72427;SDS011;60419;48.880;18.036;2022-11-24T06:07:32;51.05;;;22.77;;
72427;SDS011;60419;48.880;18.036;2022-11-24T06:10:18;50.30;;;22.35;;
72427;SDS011;60419;48.880;18.036;2022-11-24T06:13:06;50.60;;;21.45;;
72427;SDS011;60419;48.880;18.036;2022-11-24T06:15:52;51.00;;;22.20;;
72427;SDS011;60419;48.880;18.036;2022-11-24T06:18:38;52.95;;;23.08;;
72427;SDS011;60419;48.880;18.036;2022-11-24T06:21:23;51.78;;;22.83;;
72427;SDS011;60419;48.880;18.036;2022-11-24T06:24:09;48.13;;;21.65;;
72427;SDS011;60419;48.880;18.036;2022-11-24T06:26:54;48.75;;;22.10;;
72427;SDS011;60419;48.880;18.036;2022-11-24T06:29:39;56.53;;;21.83;;
72427;SDS011;60419;48.880;18.036;2022-11-24T06:32:25;46.70;;;21.27;;
72427;SDS011;60419;48.880;18.036;2022-11-24T06:35:11;54.90;;;23.20;;
72427;SDS011;60419;48.880;18.036;2022-11-24T06:37:57;49.45;;;21.50;;
72427;SDS011;60419;48.880;18.036;2022-11-24T06:40:42;51.70;;;21.67;;
72427;SDS011;60419;48.880;18.036;2022-11-24T06:43:28;51.60;;;23.10;;
72427;SDS011;60419;48.880;18.036;2022-11-24T06:46:14;59.45;;;25.30;;
72427;SDS011;60419;48.880;18.036;2022-11-24T06:48:59;48.10;;;20.70;;
72427;SDS011;60419;48.880;18.036;2022-11-24T06:51:46;45.65;;;20.02;;
72427;SDS011;60419;48.880;18.036;2022-11-24T06:54:31;47.72;;;22.08;;
72427;SDS011;60419;48.880;18.036;2022-11-24T06:57:17;53.95;;;22.55;;
72427;SDS011;60419;48.880;18.036;2022-11-24T07:00:05;56.47;;;23.75;;
72427;SDS011;60419;48.880;18.036;2022-11-24T07:02:54;63.83;;;25.85;;
72427;SDS011;60419;48.880;18.036;2022-11-24T07:05:39;62.20;;;23.38;;
72427;SDS011;60419;48.880;18.036;2022-11-24T07:08:24;55.42;;;24.35;;
72427;SDS011;60419;48.880;18.036;2022-11-24T07:11:12;57.60;;;22.35;;
72427;SDS011;60419;48.880;18.036;2022-11-24T07:13:59;57.92;;;24.45;;
72427;SDS011;60419;48.880;18.036;2022-11-24T07:16:45;58.78;;;25.00;;
72427;SDS011;60419;48.880;18.036;2022-11-24T07:19:30;58.47;;;23.42;;
72427;SDS011;60419;48.880;18.036;2022-11-24T07:22:15;57.38;;;24.45;;
72427;SDS011;60419;48.880;18.036;2022-11-24T07:25:01;59.45;;;22.60;;
72427;SDS011;60419;48.880;18.036;2022-11-24T07:27:49;65.20;;;25.38;;
72427;SDS011;60419;48.880;18.036;2022-11-24T07:30:39;57.42;;;21.10;;
72427;SDS011;60419;48.880;18.036;2022-11-24T07:33:25;64.10;;;25.63;;
72427;SDS011;60419;48.880;18.036;2022-11-24T07:36:10;63.13;;;25.75;;
72427;SDS011;60419;48.880;18.036;2022-11-24T07:38:56;61.67;;;26.10;;
72427;SDS011;60419;48.880;18.036;2022-11-24T07:41:41;64.03;;;25.20;;
72427;SDS011;60419;48.880;18.036;2022-11-24T07:44:26;62.38;;;25.40;;
72427;SDS011;60419;48.880;18.036;2022-11-24T07:47:13;64.88;;;24.90;;
72427;SDS011;60419;48.880;18.036;2022-11-24T07:49:58;64.00;;;25.90;;
72427;SDS011;60419;48.880;18.036;2022-11-24T07:52:44;56.92;;;25.25;;
72427;SDS011;60419;48.880;18.036;2022-11-24T07:55:29;64.70;;;25.70;;
72427;SDS011;60419;48.880;18.036;2022-11-24T07:58:14;56.33;;;23.65;;
72427;SDS011;60419;48.880;18.036;2022-11-24T08:01:07;62.28;;;26.02;;
72427;SDS011;60419;48.880;18.036;2022-11-24T08:03:56;53.55;;;23.67;;
72427;SDS011;60419;48.880;18.036;2022-11-24T08:06:42;59.88;;;24.17;;
72427;SDS011;60419;48.880;18.036;2022-11-24T08:09:27;59.08;;;24.38;;
72427;SDS011;60419;48.880;18.036;2022-11-24T08:12:13;57.67;;;22.98;;
72427;SDS011;60419;48.880;18.036;2022-11-24T08:15:00;65.30;;;25.50;;
72427;SDS011;60419;48.880;18.036;2022-11-24T08:17:45;56.67;;;21.90;;
72427;SDS011;60419;48.880;18.036;2022-11-24T08:20:31;56.30;;;23.33;;
72427;SDS011;60419;48.880;18.036;2022-11-24T08:23:16;53.90;;;22.27;;
72427;SDS011;60419;48.880;18.036;2022-11-24T08:26:03;55.22;;;23.85;;
72427;SDS011;60419;48.880;18.036;2022-11-24T08:28:52;52.08;;;21.90;;
72427;SDS011;60419;48.880;18.036;2022-11-24T08:31:39;57.25;;;23.35;;
72427;SDS011;60419;48.880;18.036;2022-11-24T08:34:24;52.70;;;22.42;;
72427;SDS011;60419;48.880;18.036;2022-11-24T08:37:10;51.53;;;22.50;;
72427;SDS011;60419;48.880;18.036;2022-11-24T08:39:55;55.53;;;22.63;;
72427;SDS011;60419;48.880;18.036;2022-11-24T08:42:40;51.83;;;21.15;;
72427;SDS011;60419;48.880;18.036;2022-11-24T08:45:26;52.00;;;21.38;;
72427;SDS011;60419;48.880;18.036;2022-11-24T08:48:11;54.33;;;21.00;;
72427;SDS011;60419;48.880;18.036;2022-11-24T08:50:57;46.45;;;19.50;;
72427;SDS011;60419;48.880;18.036;2022-11-24T08:53:43;51.45;;;21.90;;
72427;SDS011;60419;48.880;18.036;2022-11-24T08:56:30;57.50;;;21.10;;
72427;SDS011;60419;48.880;18.036;2022-11-24T08:59:16;53.60;;;20.58;;
72427;SDS011;60419;48.880;18.036;2022-11-24T09:02:02;43.00;;;19.17;;
72427;SDS011;60419;48.880;18.036;2022-11-24T09:04:47;51.67;;;20.83;;
72427;SDS011;60419;48.880;18.036;2022-11-24T09:07:33;53.00;;;20.77;;
72427;SDS011;60419;48.880;18.036;2022-11-24T09:10:18;54.22;;;21.52;;
72427;SDS011;60419;48.880;18.036;2022-11-24T09:13:03;51.25;;;21.23;;
72427;SDS011;60419;48.880;18.036;2022-11-24T09:15:49;51.50;;;18.98;;
72427;SDS011;60419;48.880;18.036;2022-11-24T09:18:34;55.47;;;21.63;;
72427;SDS011;60419;48.880;18.036;2022-11-24T09:21:20;51.90;;;21.05;;
72427;SDS011;60419;48.880;18.036;2022-11-24T09:24:06;50.53;;;21.02;;
72427;SDS011;60419;48.880;18.036;2022-11-24T09:26:52;49.15;;;22.05;;
72427;SDS011;60419;48.880;18.036;2022-11-24T09:29:39;50.80;;;20.30;;
72427;SDS011;60419;48.880;18.036;2022-11-24T09:32:24;44.47;;;19.05;;
72427;SDS011;60419;48.880;18.036;2022-11-24T09:35:10;52.85;;;20.50;;
72427;SDS011;60419;48.880;18.036;2022-11-24T09:37:55;52.97;;;21.98;;
72427;SDS011;60419;48.880;18.036;2022-11-24T09:40:41;50.78;;;22.52;;
72427;SDS011;60419;48.880;18.036;2022-11-24T09:43:35;50.25;;;19.90;;
72427;SDS011;60419;48.880;18.036;2022-11-24T09:50:01;53.45;;;20.80;;
72427;SDS011;60419;48.880;18.036;2022-11-24T09:52:55;49.95;;;20.30;;
72427;SDS011;60419;48.880;18.036;2022-11-24T09:55:51;62.50;;;22.05;;
72427;SDS011;60419;48.880;18.036;2022-11-24T09:58:44;50.67;;;21.90;;
72427;SDS011;60419;48.880;18.036;2022-11-24T10:01:36;48.45;;;21.73;;
72427;SDS011;60419;48.880;18.036;2022-11-24T10:04:30;47.40;;;20.10;;
72427;SDS011;60419;48.880;18.036;2022-11-24T10:07:29;48.85;;;21.00;;
72427;SDS011;60419;48.880;18.036;2022-11-24T10:10:22;49.72;;;21.17;;
72427;SDS011;60419;48.880;18.036;2022-11-24T10:22:11;48.85;;;19.52;;
72427;SDS011;60419;48.880;18.036;2022-11-24T10:28:09;46.25;;;19.65;;
72427;SDS011;60419;48.880;18.036;2022-11-24T10:30:59;44.60;;;19.17;;
72427;SDS011;60419;48.880;18.036;2022-11-24T10:34:15;48.40;;;20.50;;
72427;SDS011;60419;48.880;18.036;2022-11-24T10:40:09;43.75;;;18.90;;
72427;SDS011;60419;48.880;18.036;2022-11-24T10:43:03;43.47;;;18.98;;
72427;SDS011;60419;48.880;18.036;2022-11-24T10:45:58;44.03;;;19.65;;
72427;SDS011;60419;48.880;18.036;2022-11-24T10:49:01;45.10;;;18.65;;
72427;SDS011;60419;48.880;18.036;2022-11-24T10:54:34;46.65;;;18.30;;
72427;SDS011;60419;48.880;18.036;2022-11-24T10:57:25;41.00;;;17.70;;
72427;SDS011;60419;48.880;18.036;2022-11-24T11:03:42;37.28;;;17.20;;
72427;SDS011;60419;48.880;18.036;2022-11-24T11:06:23;43.25;;;17.95;;
72427;SDS011;60419;48.880;18.036;2022-11-24T11:09:16;39.33;;;16.45;;
72427;SDS011;60419;48.880;18.036;2022-11-24T11:12:21;42.17;;;17.50;;
72427;SDS011;60419;48.880;18.036;2022-11-24T11:15:24;40.35;;;16.45;;
72427;SDS011;60419;48.880;18.036;2022-11-24T11:18:14;42.38;;;17.00;;
72427;SDS011;60419;48.880;18.036;2022-11-24T11:21:01;38.67;;;16.45;;
72427;SDS011;60419;48.880;18.036;2022-11-24T11:23:47;39.08;;;15.70;;
72427;SDS011;60419;48.880;18.036;2022-11-24T11:26:36;41.85;;;15.77;;
72427;SDS011;60419;48.880;18.036;2022-11-24T11:29:22;36.95;;;17.08;;
72427;SDS011;60419;48.880;18.036;2022-11-24T11:35:04;40.35;;;16.48;;
72427;SDS011;60419;48.880;18.036;2022-11-24T11:37:50;38.78;;;16.80;;
72427;SDS011;60419;48.880;18.036;2022-11-24T11:40:38;39.08;;;16.58;;
72427;SDS011;60419;48.880;18.036;2022-11-24T11:43:37;43.65;;;19.08;;
72427;SDS011;60419;48.880;18.036;2022-11-24T11:46:25;37.83;;;16.65;;
72427;SDS011;60419;48.880;18.036;2022-11-24T11:49:15;43.50;;;17.58;;
72427;SDS011;60419;48.880;18.036;2022-11-24T12:10:42;45.85;;;18.80;;
72427;SDS011;60419;48.880;18.036;2022-11-24T12:13:43;50.17;;;20.33;;
72427;SDS011;60419;48.880;18.036;2022-11-24T12:16:44;46.38;;;19.63;;
72427;SDS011;60419;48.880;18.036;2022-11-24T12:19:45;47.67;;;18.70;;
72427;SDS011;60419;48.880;18.036;2022-11-24T12:25:47;44.58;;;20.77;;
72427;SDS011;60419;48.880;18.036;2022-11-24T12:38:25;48.97;;;19.40;;
72427;SDS011;60419;48.880;18.036;2022-11-24T12:51:03;49.33;;;21.95;;
72427;SDS011;60419;48.880;18.036;2022-11-24T12:53:55;45.55;;;19.70;;
72427;SDS011;60419;48.880;18.036;2022-11-24T12:56:46;46.47;;;19.98;;
72427;SDS011;60419;48.880;18.036;2022-11-24T12:59:42;52.30;;;21.52;;
72427;SDS011;60419;48.880;18.036;2022-11-24T13:08:54;51.95;;;19.98;;
72427;SDS011;60419;48.880;18.036;2022-11-24T13:11:50;49.80;;;20.48;;
72427;SDS011;60419;48.880;18.036;2022-11-24T13:14:37;45.97;;;19.90;;
72427;SDS011;60419;48.880;18.036;2022-11-24T13:23:04;45.17;;;20.15;;
72427;SDS011;60419;48.880;18.036;2022-11-24T13:28:59;48.45;;;19.55;;
72427;SDS011;60419;48.880;18.036;2022-11-24T13:31:48;45.30;;;21.23;;
72427;SDS011;60419;48.880;18.036;2022-11-24T13:45:47;48.97;;;20.02;;
72427;SDS011;60419;48.880;18.036;2022-11-24T13:51:22;42.30;;;19.70;;
72427;SDS011;60419;48.880;18.036;2022-11-24T13:54:08;47.25;;;21.77;;
72427;SDS011;60419;48.880;18.036;2022-11-24T13:57:29;50.25;;;21.42;;
72427;SDS011;60419;48.880;18.036;2022-11-24T14:03:19;49.15;;;21.27;;
72427;SDS011;60419;48.880;18.036;2022-11-24T14:12:21;42.65;;;20.63;;
72427;SDS011;60419;48.880;18.036;2022-11-24T14:15:24;48.83;;;20.80;;
72427;SDS011;60419;48.880;18.036;2022-11-24T14:18:19;47.25;;;21.33;;
72427;SDS011;60419;48.880;18.036;2022-11-24T14:24:20;48.95;;;21.55;;
72427;SDS011;60419;48.880;18.036;2022-11-24T14:27:11;46.63;;;21.08;;
72427;SDS011;60419;48.880;18.036;2022-11-24T14:30:14;44.72;;;20.77;;
72427;SDS011;60419;48.880;18.036;2022-11-24T14:33:02;50.55;;;22.25;;
72427;SDS011;60419;48.880;18.036;2022-11-24T14:35:48;51.10;;;20.92;;
72427;SDS011;60419;48.880;18.036;2022-11-24T14:38:34;54.05;;;23.23;;
72427;SDS011;60419;48.880;18.036;2022-11-24T14:41:21;46.25;;;20.05;;
72427;SDS011;60419;48.880;18.036;2022-11-24T14:47:14;55.58;;;23.25;;
72427;SDS011;60419;48.880;18.036;2022-11-24T14:50:09;53.08;;;23.65;;
72427;SDS011;60419;48.880;18.036;2022-11-24T14:52:57;47.97;;;22.58;;
72427;SDS011;60419;48.880;18.036;2022-11-24T14:55:43;47.13;;;22.08;;
72427;SDS011;60419;48.880;18.036;2022-11-24T14:58:29;52.08;;;23.48;;
72427;SDS011;60419;48.880;18.036;2022-11-24T15:04:14;51.58;;;22.15;;
72427;SDS011;60419;48.880;18.036;2022-11-24T15:07:04;49.88;;;22.38;;
72427;SDS011;60419;48.880;18.036;2022-11-24T15:10:02;45.55;;;20.73;;
72427;SDS011;60419;48.880;18.036;2022-11-24T15:12:50;48.92;;;22.90;;
72427;SDS011;60419;48.880;18.036;2022-11-24T15:15:44;53.13;;;24.08;;
72427;SDS011;60419;48.880;18.036;2022-11-24T15:21:33;55.13;;;22.35;;
72427;SDS011;60419;48.880;18.036;2022-11-24T15:24:20;52.47;;;23.98;;
72427;SDS011;60419;48.880;18.036;2022-11-24T15:27:06;52.28;;;22.25;;
72427;SDS011;60419;48.880;18.036;2022-11-24T15:29:51;50.03;;;23.20;;
72427;SDS011;60419;48.880;18.036;2022-11-24T15:32:46;54.00;;;23.50;;
72427;SDS011;60419;48.880;18.036;2022-11-24T15:35:32;49.60;;;22.80;;
72427;SDS011;60419;48.880;18.036;2022-11-24T15:38:18;51.78;;;24.05;;
72427;SDS011;60419;48.880;18.036;2022-11-24T15:41:04;50.75;;;25.02;;
72427;SDS011;60419;48.880;18.036;2022-11-24T15:44:01;48.88;;;22.40;;
72427;SDS011;60419;48.880;18.036;2022-11-24T15:46:46;56.60;;;25.92;;
72427;SDS011;60419;48.880;18.036;2022-11-24T15:49:31;51.65;;;23.10;;
72427;SDS011;60419;48.880;18.036;2022-11-24T15:52:17;49.33;;;23.17;;
72427;SDS011;60419;48.880;18.036;2022-11-24T15:55:04;49.17;;;23.90;;
72427;SDS011;60419;48.880;18.036;2022-11-24T15:57:51;51.05;;;25.05;;
72427;SDS011;60419;48.880;18.036;2022-11-24T16:00:36;54.08;;;23.48;;
72427;SDS011;60419;48.880;18.036;2022-11-24T16:03:22;50.42;;;22.75;;
72427;SDS011;60419;48.880;18.036;2022-11-24T16:06:10;55.25;;;24.23;;
72427;SDS011;60419;48.880;18.036;2022-11-24T16:09:00;48.70;;;22.85;;
72427;SDS011;60419;48.880;18.036;2022-11-24T16:11:46;48.88;;;23.20;;
72427;SDS011;60419;48.880;18.036;2022-11-24T16:14:31;51.10;;;24.55;;
72427;SDS011;60419;48.880;18.036;2022-11-24T16:17:16;49.80;;;23.35;;
72427;SDS011;60419;48.880;18.036;2022-11-24T16:20:02;48.05;;;22.83;;
72427;SDS011;60419;48.880;18.036;2022-11-24T16:22:47;45.00;;;21.63;;
72427;SDS011;60419;48.880;18.036;2022-11-24T16:25:33;45.35;;;21.77;;
72427;SDS011;60419;48.880;18.036;2022-11-24T16:28:18;45.08;;;22.35;;
72427;SDS011;60419;48.880;18.036;2022-11-24T16:31:04;48.88;;;21.92;;
72427;SDS011;60419;48.880;18.036;2022-11-24T16:33:49;43.20;;;21.25;;
72427;SDS011;60419;48.880;18.036;2022-11-24T16:36:35;60.05;;;24.15;;
72427;SDS011;60419;48.880;18.036;2022-11-24T16:39:20;43.33;;;20.45;;
72427;SDS011;60419;48.880;18.036;2022-11-24T16:42:05;42.45;;;20.27;;
72427;SDS011;60419;48.880;18.036;2022-11-24T16:44:51;43.33;;;21.60;;
72427;SDS011;60419;48.880;18.036;2022-11-24T16:47:40;43.05;;;20.77;;
72427;SDS011;60419;48.880;18.036;2022-11-24T16:50:26;44.35;;;22.10;;
72427;SDS011;60419;48.880;18.036;2022-11-24T16:53:11;42.78;;;21.27;;
72427;SDS011;60419;48.880;18.036;2022-11-24T16:55:56;43.75;;;21.65;;
72427;SDS011;60419;48.880;18.036;2022-11-24T16:58:42;44.92;;;21.63;;
72427;SDS011;60419;48.880;18.036;2022-11-24T17:01:27;45.30;;;22.88;;
72427;SDS011;60419;48.880;18.036;2022-11-24T17:04:13;52.65;;;23.45;;
72427;SDS011;60419;48.880;18.036;2022-11-24T17:06:59;51.65;;;24.55;;
72427;SDS011;60419;48.880;18.036;2022-11-24T17:09:44;49.03;;;23.88;;
72427;SDS011;60419;48.880;18.036;2022-11-24T17:12:30;51.63;;;24.20;;
72427;SDS011;60419;48.880;18.036;2022-11-24T17:15:15;60.00;;;24.83;;
72427;SDS011;60419;48.880;18.036;2022-11-24T17:18:00;42.50;;;21.52;;
72427;SDS011;60419;48.880;18.036;2022-11-24T17:20:46;44.35;;;22.83;;
72427;SDS011;60419;48.880;18.036;2022-11-24T17:23:31;52.55;;;26.27;;
72427;SDS011;60419;48.880;18.036;2022-11-24T17:26:17;46.80;;;22.77;;
72427;SDS011;60419;48.880;18.036;2022-11-24T17:29:02;49.25;;;23.20;;
72427;SDS011;60419;48.880;18.036;2022-11-24T17:31:47;50.10;;;23.55;;
72427;SDS011;60419;48.880;18.036;2022-11-24T17:34:33;47.38;;;22.92;;
72427;SDS011;60419;48.880;18.036;2022-11-24T17:37:18;50.97;;;24.15;;
72427;SDS011;60419;48.880;18.036;2022-11-24T17:40:04;48.83;;;23.02;;
72427;SDS011;60419;48.880;18.036;2022-11-24T17:42:50;46.67;;;21.92;;
72427;SDS011;60419;48.880;18.036;2022-11-24T17:45:35;41.50;;;17.35;;
72427;SDS011;60419;48.880;18.036;2022-11-24T17:48:21;67.22;;;30.25;;
72427;SDS011;60419;48.880;18.036;2022-11-24T17:51:08;54.33;;;24.30;;
72427;SDS011;60419;48.880;18.036;2022-11-24T17:53:58;56.72;;;25.15;;
72427;SDS011;60419;48.880;18.036;2022-11-24T17:56:43;47.42;;;24.48;;
72427;SDS011;60419;48.880;18.036;2022-11-24T17:59:30;53.17;;;24.92;;
72427;SDS011;60419;48.880;18.036;2022-11-24T18:02:15;50.13;;;24.40;;
72427;SDS011;60419;48.880;18.036;2022-11-24T18:05:00;55.08;;;24.67;;
72427;SDS011;60419;48.880;18.036;2022-11-24T18:07:46;53.00;;;25.02;;
72427;SDS011;60419;48.880;18.036;2022-11-24T18:10:31;48.42;;;23.88;;
72427;SDS011;60419;48.880;18.036;2022-11-24T18:13:17;52.20;;;24.30;;